createdAt,value
2023-02-19T00:01:10.512Z,98257.84
2023-02-19T00:03:38.219Z,98256.81
2023-02-19T00:06:06.916Z,98246.81
2023-02-19T00:08:35.127Z,98243.31
2023-02-19T00:11:07.600Z,98251.41
2023-02-19T00:13:38.507Z,98244.34
2023-02-19T00:16:15.132Z,98251.19
2023-02-19T00:18:43.032Z,98249.06
2023-02-19T00:21:10.323Z,98254.75
2023-02-19T00:23:37.577Z,98241.31
2023-02-19T00:26:17.644Z,98227.56
2023-02-19T00:28:46.955Z,98227.28
2023-02-19T00:31:18.690Z,98229.81
2023-02-19T00:33:47.087Z,98229.94
2023-02-19T00:36:14.760Z,98253.94
2023-02-19T00:38:42.637Z,98248.78
2023-02-19T00:41:19.317Z,98252.25
2023-02-19T00:44:03.984Z,98235.28
2023-02-19T00:46:59.946Z,98239.66
2023-02-19T00:49:26.833Z,98232.25
2023-02-19T00:51:53.821Z,98225.06
2023-02-19T00:54:22.717Z,98227.31
2023-02-19T00:56:49.938Z,98227.22
2023-02-19T00:59:17.063Z,98229.38
2023-02-19T01:01:47.126Z,98232.72
2023-02-19T01:04:14.091Z,98234.44
2023-02-19T01:06:41.395Z,98233.72
2023-02-19T01:09:08.426Z,98228.22
2023-02-19T01:11:35.472Z,98216.22
2023-02-19T01:14:03.723Z,98217.22
2023-02-19T01:16:31.150Z,98208.97
2023-02-19T01:18:58.619Z,98219.84
2023-02-19T01:21:26.659Z,98209.87
2023-02-19T01:23:54.007Z,98216.75
2023-02-19T01:26:22.772Z,98211.81
2023-02-19T01:28:49.869Z,98217.19
2023-02-19T01:31:19.861Z,98223.28
2023-02-19T01:33:48.234Z,98215.84
2023-02-19T01:36:16.193Z,98212.06
2023-02-19T01:38:43.670Z,98210.75
2023-02-19T01:41:13.495Z,98210.63
2023-02-19T01:43:58.928Z,98204.78
2023-02-19T01:46:27.636Z,98212.28
2023-02-19T01:48:55.098Z,98203.72
2023-02-19T01:51:22.571Z,98200.28
2023-02-19T01:53:53.595Z,98195.63
2023-02-19T01:56:20.994Z,98197.00
2023-02-19T01:58:47.992Z,98187.09
2023-02-19T02:01:15.163Z,98186.06
2023-02-19T02:03:43.564Z,98189.75
2023-02-19T02:06:22.502Z,98166.59
2023-02-19T02:09:13.934Z,98178.03
2023-02-19T02:11:44.107Z,98172.34
2023-02-19T02:14:11.045Z,98173.06
2023-02-19T02:17:11.912Z,98179.56
2023-02-19T02:19:47.608Z,98181.84
2023-02-19T02:22:33.098Z,98183.53
2023-02-19T02:25:18.619Z,98173.38
2023-02-19T02:28:07.454Z,98174.53
2023-02-19T02:30:42.087Z,98177.19
2023-02-19T02:33:21.680Z,98175.47
2023-02-19T02:35:57.031Z,98181.75
2023-02-19T02:38:26.292Z,98175.50
2023-02-19T02:40:54.556Z,98174.50
2023-02-19T02:43:21.507Z,98167.66
2023-02-19T02:45:48.651Z,98167.75
2023-02-19T02:48:35.488Z,98161.22
2023-02-19T02:51:05.398Z,98157.47
2023-02-19T02:54:00.662Z,98155.19
2023-02-19T02:56:27.573Z,98135.09
2023-02-19T02:58:56.138Z,98135.53
2023-02-19T03:01:48.107Z,98130.59
2023-02-19T03:04:58.536Z,98118.75
2023-02-19T03:07:27.386Z,98133.69
2023-02-19T03:09:54.715Z,98125.47
2023-02-19T03:12:41.201Z,98117.81
2023-02-19T03:15:28.626Z,98137.50
2023-02-19T03:18:18.071Z,98139.50
2023-02-19T03:20:48.387Z,98149.37
2023-02-19T03:23:17.993Z,98155.31
2023-02-19T03:26:03.243Z,98149.91
2023-02-19T03:28:51.995Z,98150.59
2023-02-19T03:31:21.902Z,98160.66
2023-02-19T03:33:54.645Z,98166.97
2023-02-19T03:36:26.133Z,98160.16
2023-02-19T03:39:16.715Z,98164.78
2023-02-19T03:41:49.833Z,98165.50
2023-02-19T03:44:37.405Z,98164.84
2023-02-19T03:47:20.072Z,98180.78
2023-02-19T03:49:57.083Z,98178.75
2023-02-19T03:52:42.274Z,98184.75
2023-02-19T03:55:13.989Z,98183.69
2023-02-19T03:57:52.134Z,98184.50
2023-02-19T04:00:41.013Z,98187.09
2023-02-19T04:03:29.196Z,98172.66
2023-02-19T04:06:01.733Z,98182.31
2023-02-19T04:08:29.544Z,98191.34
2023-02-19T04:10:58.809Z,98187.37
2023-02-19T04:13:46.891Z,98187.50
2023-02-19T04:16:19.650Z,98185.41
2023-02-19T04:18:49.355Z,98187.31
2023-02-19T04:21:16.832Z,98189.72
2023-02-19T04:23:45.084Z,98180.28
2023-02-19T04:26:12.956Z,98179.03
2023-02-19T04:28:40.521Z,98183.91
2023-02-19T04:31:07.680Z,98182.44
2023-02-19T04:33:34.869Z,98189.03
2023-02-19T04:36:01.797Z,98192.25
2023-02-19T04:38:28.702Z,98196.56
2023-02-19T04:40:55.617Z,98197.63
2023-02-19T04:43:22.488Z,98202.97
2023-02-19T04:45:49.545Z,98197.63
2023-02-19T04:48:16.426Z,98198.16
2023-02-19T04:50:43.353Z,98193.25
2023-02-19T04:53:10.238Z,98188.56
2023-02-19T04:55:38.652Z,98194.34
2023-02-19T04:58:05.604Z,98193.59
2023-02-19T05:00:34.193Z,98205.25
2023-02-19T05:03:01.572Z,98195.44
2023-02-19T05:05:28.471Z,98200.03
2023-02-19T05:07:55.413Z,98187.75
2023-02-19T05:10:22.311Z,98186.56
2023-02-19T05:12:49.231Z,98194.72
2023-02-19T05:15:16.144Z,98193.97
2023-02-19T05:17:43.103Z,98182.84
2023-02-19T05:20:10.200Z,98195.47
2023-02-19T05:22:37.042Z,98200.41
2023-02-19T05:25:04.602Z,98204.34
2023-02-19T05:27:32.021Z,98198.69
2023-02-19T05:29:59.083Z,98193.66
2023-02-19T05:32:26.033Z,98186.50
2023-02-19T05:34:52.942Z,98194.37
2023-02-19T05:37:19.901Z,98201.78
2023-02-19T05:39:46.724Z,98212.09
2023-02-19T05:42:13.936Z,98224.53
2023-02-19T05:44:40.908Z,98213.19
2023-02-19T05:47:07.808Z,98209.25
2023-02-19T05:49:34.779Z,98204.78
2023-02-19T05:52:01.711Z,98202.84
2023-02-19T05:54:29.682Z,98208.97
2023-02-19T05:56:56.768Z,98214.81
2023-02-19T05:59:25.949Z,98211.72
2023-02-19T06:01:54.202Z,98202.09
2023-02-19T06:04:21.145Z,98193.31
2023-02-19T06:06:48.573Z,98195.31
2023-02-19T06:09:15.523Z,98205.31
2023-02-19T06:11:43.742Z,98203.41
2023-02-19T06:14:13.536Z,98212.28
2023-02-19T06:16:40.492Z,98211.19
2023-02-19T06:19:07.410Z,98202.47
2023-02-19T06:21:34.618Z,98190.31
2023-02-19T06:24:07.330Z,98184.16
2023-02-19T06:26:34.193Z,98188.06
2023-02-19T06:29:00.880Z,98193.59
2023-02-19T06:31:27.935Z,98189.63
2023-02-19T06:33:55.508Z,98185.44
2023-02-19T06:36:22.814Z,98186.66
2023-02-19T06:38:49.903Z,98177.97
2023-02-19T06:41:17.007Z,98191.34
2023-02-19T06:43:43.979Z,98174.47
2023-02-19T06:46:12.038Z,98175.47
2023-02-19T06:48:40.108Z,98180.59
2023-02-19T06:51:06.997Z,98187.00
2023-02-19T06:53:33.949Z,98179.81
2023-02-19T06:56:06.721Z,98178.53
2023-02-19T06:58:34.312Z,98184.59
2023-02-19T07:01:01.394Z,98177.66
2023-02-19T07:03:28.348Z,98168.34
2023-02-19T07:05:55.285Z,98164.87
2023-02-19T07:08:22.248Z,98155.34
2023-02-19T07:10:56.694Z,98162.63
2023-02-19T07:13:24.727Z,98162.88
2023-02-19T07:15:52.296Z,98162.31
2023-02-19T07:18:19.310Z,98147.56
2023-02-19T07:20:46.190Z,98153.31
2023-02-19T07:23:13.158Z,98152.03
2023-02-19T07:25:40.377Z,98157.31
2023-02-19T07:28:07.429Z,98151.09
2023-02-19T07:30:34.404Z,98167.38
2023-02-19T07:33:01.636Z,98172.06
2023-02-19T07:35:28.660Z,98156.81
2023-02-19T07:37:55.548Z,98157.13
2023-02-19T07:40:22.447Z,98156.94
2023-02-19T07:42:49.330Z,98154.16
2023-02-19T07:45:16.339Z,98157.91
2023-02-19T07:47:43.677Z,98153.31
2023-02-19T07:50:13.007Z,98160.09
2023-02-19T07:52:40.748Z,98160.47
2023-02-19T07:55:07.479Z,98154.78
2023-02-19T07:57:34.419Z,98169.59
2023-02-19T08:00:01.179Z,98186.06
2023-02-19T08:02:46.449Z,98200.66
2023-02-19T08:05:14.028Z,98196.47
2023-02-19T08:07:40.930Z,98201.03
2023-02-19T08:10:26.742Z,98185.94
2023-02-19T08:13:16.873Z,98156.87
2023-02-19T08:15:44.055Z,98172.56
2023-02-19T08:18:11.636Z,98182.72
2023-02-19T08:23:06.261Z,98143.09
2023-02-19T08:25:33.545Z,98140.78
2023-02-19T08:28:00.842Z,98132.66
2023-02-19T08:30:29.149Z,98127.63
2023-02-19T08:32:56.294Z,98135.63
2023-02-19T08:35:23.173Z,98144.38
2023-02-19T08:37:50.134Z,98137.62
2023-02-19T08:40:17.548Z,98149.47
2023-02-19T08:42:44.416Z,98134.50
2023-02-19T08:45:11.281Z,98138.63
2023-02-19T08:47:38.771Z,98139.47
2023-02-19T08:50:07.016Z,98153.25
2023-02-19T08:52:34.297Z,98165.44
2023-02-19T08:55:02.503Z,98172.00
2023-02-19T08:57:29.669Z,98170.34
2023-02-19T08:59:57.362Z,98185.88
2023-02-19T09:02:25.191Z,98177.81
2023-02-19T09:04:52.259Z,98179.25
2023-02-19T09:07:19.806Z,98174.56
2023-02-19T09:09:46.667Z,98172.47
2023-02-19T09:12:13.644Z,98172.56
2023-02-19T09:14:40.691Z,98158.84
2023-02-19T09:17:08.493Z,98166.19
2023-02-19T09:19:35.794Z,98161.19
2023-02-19T09:22:03.530Z,98157.78
2023-02-19T09:24:31.012Z,98155.66
2023-02-19T09:26:58.065Z,98151.84
2023-02-19T09:29:26.177Z,98158.28
2023-02-19T09:31:59.576Z,98155.72
2023-02-19T09:34:27.813Z,98153.88
2023-02-19T09:36:55.266Z,98167.25
2023-02-19T09:39:22.458Z,98152.47
2023-02-19T09:41:52.476Z,98148.69
2023-02-19T09:44:36.022Z,98147.59
2023-02-19T09:47:09.592Z,98149.37
2023-02-19T09:49:41.005Z,98141.03
2023-02-19T09:52:12.609Z,98144.66
2023-02-19T09:54:39.916Z,98145.03
2023-02-19T09:57:14.304Z,98127.41
2023-02-19T09:59:45.953Z,98134.00
2023-02-19T10:02:19.425Z,98132.69
2023-02-19T10:04:47.781Z,98134.25
2023-02-19T10:07:16.178Z,98128.81
2023-02-19T10:09:46.025Z,98123.84
2023-02-19T10:12:18.552Z,98106.75
2023-02-19T10:14:51.693Z,98105.09
2023-02-19T10:17:24.490Z,98109.63
2023-02-19T10:19:52.302Z,98114.53
2023-02-19T10:22:19.956Z,98125.91
2023-02-19T10:24:51.897Z,98126.16
2023-02-19T10:27:19.300Z,98128.28
2023-02-19T10:29:48.267Z,98134.66
2023-02-19T10:32:24.369Z,98131.28
2023-02-19T10:35:26.551Z,98130.53
2023-02-19T10:37:53.428Z,98110.53
2023-02-19T10:40:22.899Z,98111.56
2023-02-19T10:42:56.596Z,98115.12
2023-02-19T10:45:26.665Z,98106.44
2023-02-19T10:47:53.570Z,98110.75
2023-02-19T10:50:30.490Z,98107.00
2023-02-19T10:52:58.931Z,98116.81
2023-02-19T10:55:29.111Z,98116.38
2023-02-19T10:57:56.742Z,98110.75
2023-02-19T11:00:27.568Z,98107.56
2023-02-19T11:03:15.175Z,98109.09
2023-02-19T11:05:51.924Z,98108.31
2023-02-19T11:08:22.945Z,98106.94
2023-02-19T11:10:50.169Z,98103.16
2023-02-19T11:13:30.575Z,98095.72
2023-02-19T11:15:57.699Z,98096.00
2023-02-19T11:18:29.799Z,98086.13
2023-02-19T11:21:05.033Z,98090.94
2023-02-19T11:23:33.275Z,98091.31
2023-02-19T11:26:04.364Z,98092.75
2023-02-19T11:28:40.509Z,98079.81
2023-02-19T11:31:16.446Z,98072.94
2023-02-19T11:33:53.824Z,98075.19
2023-02-19T11:36:23.483Z,98065.66
2023-02-19T11:38:50.435Z,98071.03
2023-02-19T11:41:26.645Z,98062.22
2023-02-19T11:44:05.698Z,98062.78
2023-02-19T11:46:42.074Z,98073.72
2023-02-19T11:49:26.429Z,98060.16
2023-02-19T11:52:08.794Z,98076.12
2023-02-19T11:54:48.815Z,98069.19
2023-02-19T11:57:21.670Z,98071.91
2023-02-19T11:59:56.195Z,98057.25
2023-02-19T12:02:28.650Z,98058.91
2023-02-19T12:05:12.029Z,98059.34
2023-02-19T12:08:03.926Z,98048.28
2023-02-19T12:10:36.702Z,98039.56
2023-02-19T12:13:25.379Z,98050.22
2023-02-19T12:16:25.789Z,98052.19
2023-02-19T12:18:58.563Z,98056.56
2023-02-19T12:21:25.358Z,98075.19
2023-02-19T12:24:12.035Z,98080.03
2023-02-19T12:27:00.375Z,98073.78
2023-02-19T12:29:47.151Z,98067.03
2023-02-19T12:32:26.118Z,98078.00
2023-02-19T12:35:16.300Z,98066.38
2023-02-19T12:38:04.779Z,98069.16
2023-02-19T12:40:31.553Z,98081.25
2023-02-19T12:43:10.154Z,98104.91
2023-02-19T12:45:39.258Z,98114.66
2023-02-19T12:48:27.284Z,98111.78
2023-02-19T12:50:58.161Z,98084.78
2023-02-19T12:53:45.834Z,98063.88
2023-02-19T12:56:21.480Z,98076.31
2023-02-19T12:58:55.264Z,98058.75
2023-02-19T13:01:32.970Z,98050.56
2023-02-19T13:04:17.741Z,98040.72
2023-02-19T13:07:13.499Z,98051.81
2023-02-19T13:09:53.497Z,98055.66
2023-02-19T13:12:25.334Z,98052.56
2023-02-19T13:15:01.054Z,98050.06
2023-02-19T13:17:47.137Z,98049.75
2023-02-19T13:20:27.611Z,98039.22
2023-02-19T13:23:33.497Z,98032.50
2023-02-19T13:26:12.033Z,98034.00
2023-02-19T13:29:07.809Z,98043.69
2023-02-19T13:32:02.662Z,98027.94
2023-02-19T13:35:04.753Z,98020.66
2023-02-19T13:37:35.338Z,98030.50
2023-02-19T13:40:31.808Z,98020.94
2023-02-19T13:43:00.981Z,98020.37
2023-02-19T13:45:36.789Z,98018.81
2023-02-19T13:48:23.865Z,98018.16
2023-02-19T13:51:13.624Z,98012.97
2023-02-19T13:53:46.254Z,98008.19
2023-02-19T13:56:34.458Z,97998.47
2023-02-19T13:59:19.997Z,98009.78
2023-02-19T14:01:49.744Z,98011.94
2023-02-19T14:04:23.821Z,98011.00
2023-02-19T14:07:06.141Z,98020.47
2023-02-19T14:09:43.984Z,98011.37
2023-02-19T14:12:10.837Z,98008.34
2023-02-19T14:14:41.858Z,98012.78
2023-02-19T14:17:08.694Z,98010.09
2023-02-19T14:19:41.570Z,97997.44
2023-02-19T14:23:03.553Z,98025.84
2023-02-19T14:25:49.660Z,98026.59
2023-02-19T14:28:30.162Z,98021.50
2023-02-19T14:31:18.119Z,98015.47
2023-02-19T14:33:49.062Z,98038.03
2023-02-19T14:36:48.910Z,98037.25
2023-02-19T14:39:15.837Z,98040.03
2023-02-19T14:41:46.236Z,98023.38
2023-02-19T14:44:18.604Z,98052.78
2023-02-19T14:47:14.083Z,98035.97
2023-02-19T14:49:51.796Z,98063.06
2023-02-19T14:52:28.515Z,98048.41
2023-02-19T14:54:59.132Z,98060.16
2023-02-19T14:57:46.813Z,98061.91
2023-02-19T15:00:22.391Z,98072.19
2023-02-19T15:02:53.349Z,98086.75
2023-02-19T15:05:31.414Z,98084.94
2023-02-19T15:08:00.689Z,98070.19
2023-02-19T15:10:29.112Z,98089.72
2023-02-19T15:13:05.155Z,98083.34
2023-02-19T15:15:35.615Z,98084.94
2023-02-19T15:18:04.003Z,98093.69
2023-02-19T15:20:36.407Z,98099.62
2023-02-19T15:23:06.329Z,98098.56
2023-02-19T15:25:43.359Z,98104.50
2023-02-19T15:28:25.587Z,98110.78
2023-02-19T15:31:07.837Z,98120.41
2023-02-19T15:33:35.099Z,98127.94
2023-02-19T15:36:05.637Z,98131.03
2023-02-19T15:38:33.627Z,98115.47
2023-02-19T15:41:01.457Z,98125.84
2023-02-19T15:43:44.598Z,98133.78
2023-02-19T15:46:22.073Z,98136.88
2023-02-19T15:49:16.387Z,98126.84
2023-02-19T15:51:57.027Z,98125.91
2023-02-19T15:54:29.524Z,98122.66
2023-02-19T15:57:00.512Z,98136.38
2023-02-19T15:59:36.955Z,98133.44
2023-02-19T16:02:04.574Z,98139.56
2023-02-19T16:04:31.603Z,98149.94
2023-02-19T16:07:01.308Z,98151.94
2023-02-19T16:09:37.233Z,98150.91
2023-02-19T16:12:20.372Z,98157.81
2023-02-19T16:14:47.451Z,98163.06
2023-02-19T16:17:18.321Z,98157.41
2023-02-19T16:20:02.260Z,98169.94
2023-02-19T16:22:31.348Z,98168.81
2023-02-19T16:25:03.984Z,98173.84
2023-02-19T16:27:38.776Z,98180.69
2023-02-19T16:30:19.063Z,98182.69
2023-02-19T16:32:47.041Z,98189.03
2023-02-19T16:35:42.413Z,98201.47
2023-02-19T16:38:27.327Z,98207.06
2023-02-19T16:41:05.610Z,98194.66
2023-02-19T16:43:41.023Z,98223.44
2023-02-19T16:46:10.526Z,98226.41
2023-02-19T16:48:37.659Z,98243.13
2023-02-19T16:51:08.633Z,98240.09
2023-02-19T16:53:35.749Z,98245.22
2023-02-19T16:56:02.755Z,98237.31
2023-02-19T16:58:29.667Z,98246.53
2023-02-19T17:00:56.693Z,98260.25
2023-02-19T17:03:25.083Z,98251.06
2023-02-19T17:05:52.573Z,98260.47
2023-02-19T17:08:37.830Z,98250.91
2023-02-19T17:11:07.806Z,98261.66
2023-02-19T17:13:34.791Z,98244.56
2023-02-19T17:16:02.129Z,98263.19
2023-02-19T17:18:29.493Z,98257.06
2023-02-19T17:21:14.986Z,98257.56
2023-02-19T17:23:42.036Z,98264.91
2023-02-19T17:26:14.715Z,98279.28
2023-02-19T17:28:41.632Z,98272.09
2023-02-19T17:31:11.108Z,98289.25
2023-02-19T17:33:38.816Z,98275.88
2023-02-19T17:36:06.211Z,98274.31
2023-02-19T17:38:33.081Z,98282.53
2023-02-19T17:40:59.967Z,98305.31
2023-02-19T17:43:26.838Z,98312.84
2023-02-19T17:45:53.762Z,98322.63
2023-02-19T17:48:20.630Z,98309.06
2023-02-19T17:50:49.426Z,98327.41
2023-02-19T17:53:16.487Z,98331.44
2023-02-19T17:55:43.375Z,98349.25
2023-02-19T17:58:10.383Z,98361.69
2023-02-19T18:00:37.526Z,98370.75
2023-02-19T18:03:04.994Z,98373.12
2023-02-19T18:05:31.894Z,98397.69
2023-02-19T18:07:58.928Z,98391.81
2023-02-19T18:10:25.798Z,98409.44
2023-02-19T18:12:52.880Z,98406.63
2023-02-19T18:15:26.993Z,98419.72
2023-02-19T18:17:54.844Z,98419.25
2023-02-19T18:20:23.888Z,98425.84
2023-02-19T18:22:51.191Z,98427.81
2023-02-19T18:25:18.872Z,98435.53
2023-02-19T18:27:45.789Z,98436.63
2023-02-19T18:30:15.704Z,98448.50
2023-02-19T18:32:42.808Z,98431.50
2023-02-19T18:35:09.917Z,98451.25
2023-02-19T18:37:36.978Z,98440.94
2023-02-19T18:40:05.050Z,98438.37
2023-02-19T18:42:31.976Z,98439.75
2023-02-19T18:44:59.314Z,98437.91
2023-02-19T18:47:26.812Z,98444.78
2023-02-19T18:49:55.457Z,98433.00
2023-02-19T18:52:26.590Z,98436.50
2023-02-19T18:54:55.264Z,98442.53
2023-02-19T18:57:23.419Z,98447.22
2023-02-19T18:59:50.590Z,98451.75
2023-02-19T19:02:18.167Z,98454.28
2023-02-19T19:04:49.540Z,98452.00
2023-02-19T19:07:16.541Z,98469.16
2023-02-19T19:09:43.442Z,98470.66
2023-02-19T19:12:10.326Z,98461.13
2023-02-19T19:14:37.579Z,98460.63
2023-02-19T19:17:04.534Z,98462.19
2023-02-19T19:19:31.585Z,98468.56
2023-02-19T19:21:58.480Z,98469.41
2023-02-19T19:24:25.583Z,98459.06
2023-02-19T19:26:53.716Z,98463.47
2023-02-19T19:29:22.244Z,98461.25
2023-02-19T19:31:49.728Z,98479.28
2023-02-19T19:34:17.218Z,98477.81
2023-02-19T19:36:44.126Z,98489.38
2023-02-19T19:39:11.018Z,98497.09
2023-02-19T19:41:37.908Z,98486.25
2023-02-19T19:44:05.961Z,98495.62
2023-02-19T19:46:33.718Z,98489.47
2023-02-19T19:49:02.509Z,98489.44
2023-02-19T19:51:35.438Z,98479.91
2023-02-19T19:54:04.233Z,98485.44
2023-02-19T19:56:31.617Z,98484.03
2023-02-19T19:58:58.519Z,98485.53
2023-02-19T20:01:25.449Z,98493.00
2023-02-19T20:03:52.387Z,98495.84
2023-02-19T20:06:27.421Z,98487.56
2023-02-19T20:08:54.729Z,98494.69
2023-02-19T20:11:21.625Z,98499.41
2023-02-19T20:13:48.609Z,98510.88
2023-02-19T20:16:15.674Z,98512.19
2023-02-19T20:18:42.584Z,98513.19
2023-02-19T20:21:10.462Z,98512.59
2023-02-19T20:23:40.553Z,98518.91
2023-02-19T20:26:07.865Z,98529.16
2023-02-19T20:28:34.697Z,98532.22
2023-02-19T20:31:01.430Z,98547.59
2023-02-19T20:33:28.320Z,98551.38
2023-02-19T20:35:57.119Z,98556.88
2023-02-19T20:38:24.070Z,98568.03
2023-02-19T20:40:51.105Z,98554.03
2023-02-19T20:43:18.025Z,98556.47
2023-02-19T20:45:46.643Z,98561.41
2023-02-19T20:48:18.025Z,98549.28
2023-02-19T20:50:44.916Z,98546.31
2023-02-19T20:53:12.128Z,98539.72
2023-02-19T20:55:39.179Z,98540.38
2023-02-19T20:58:06.116Z,98543.09
2023-02-19T21:00:32.966Z,98530.91
2023-02-19T21:02:59.622Z,98547.03
2023-02-19T21:05:26.541Z,98538.75
2023-02-19T21:07:53.459Z,98529.81
2023-02-19T21:10:20.358Z,98529.53
2023-02-19T21:12:47.237Z,98530.56
2023-02-19T21:15:14.930Z,98527.00
2023-02-19T21:17:45.046Z,98525.84
2023-02-19T21:20:12.201Z,98528.84
2023-02-19T21:22:39.078Z,98516.16
2023-02-19T21:25:06.397Z,98519.53
2023-02-19T21:27:33.260Z,98526.44
2023-02-19T21:29:59.915Z,98528.84
2023-02-19T21:32:26.969Z,98529.50
2023-02-19T21:34:53.990Z,98528.69
2023-02-19T21:37:20.918Z,98535.69
2023-02-19T21:39:47.808Z,98537.72
2023-02-19T21:42:14.688Z,98544.84
2023-02-19T21:44:43.074Z,98552.81
2023-02-19T21:47:11.761Z,98550.56
2023-02-19T21:49:38.771Z,98559.41
2023-02-19T21:52:05.636Z,98564.50
2023-02-19T21:54:32.532Z,98566.34
2023-02-19T21:57:02.221Z,98557.91
2023-02-19T21:59:29.109Z,98563.69
2023-02-19T22:01:57.254Z,98555.03
2023-02-19T22:04:27.512Z,98552.94
2023-02-19T22:06:57.525Z,98551.69
2023-02-19T22:09:24.470Z,98561.75
2023-02-19T22:11:51.435Z,98559.16
2023-02-19T22:14:18.388Z,98563.53
2023-02-19T22:16:45.317Z,98571.31
2023-02-19T22:19:12.999Z,98574.63
2023-02-19T22:21:43.318Z,98585.56
2023-02-19T22:24:15.144Z,98597.06
2023-02-19T22:26:42.731Z,98596.41
2023-02-19T22:29:11.518Z,98595.75
2023-02-19T22:31:38.741Z,98591.75
2023-02-19T22:34:05.794Z,98589.03
2023-02-19T22:36:33.696Z,98602.88
2023-02-19T22:39:01.575Z,98612.81
2023-02-19T22:41:28.759Z,98624.19
2023-02-19T22:43:56.470Z,98615.69
2023-02-19T22:46:25.204Z,98626.69
2023-02-19T22:48:52.062Z,98621.72
2023-02-19T22:51:20.046Z,98634.38
2023-02-19T22:53:47.439Z,98634.63
2023-02-19T22:56:16.078Z,98647.38
2023-02-19T22:58:43.633Z,98649.88
2023-02-19T23:01:12.190Z,98657.88
2023-02-19T23:03:50.018Z,98658.41
2023-02-19T23:06:17.837Z,98654.47
2023-02-19T23:08:44.824Z,98672.41
2023-02-19T23:11:13.333Z,98674.06
2023-02-19T23:13:43.086Z,98676.34
2023-02-19T23:16:10.239Z,98692.66
2023-02-19T23:18:37.346Z,98697.03
2023-02-19T23:21:04.337Z,98708.94
2023-02-19T23:23:31.239Z,98709.78
2023-02-19T23:25:58.110Z,98714.84
2023-02-19T23:28:25.051Z,98708.13
2023-02-19T23:30:52.054Z,98708.31
2023-02-19T23:33:18.955Z,98726.34
2023-02-19T23:35:45.638Z,98728.56
2023-02-19T23:38:12.651Z,98722.59
2023-02-19T23:40:39.551Z,98732.97
2023-02-19T23:43:06.476Z,98729.53
2023-02-19T23:45:33.370Z,98736.13
2023-02-19T23:48:00.394Z,98737.66
2023-02-19T23:50:27.277Z,98732.47
2023-02-19T23:52:56.472Z,98743.25
2023-02-19T23:55:23.518Z,98755.91
2023-02-19T23:57:52.180Z,98754.94
